createdAt,value
2022-11-04T00:05:41.916Z,99640.72
2022-11-04T00:12:58.637Z,99646.97
2022-11-04T00:39:15.011Z,99616.09
2022-11-04T00:54:29.726Z,99605.41
2022-11-04T00:57:19.981Z,99596.63
2022-11-04T01:15:22.154Z,99595.63
2022-11-04T01:25:16.978Z,99575.63
2022-11-04T01:35:41.461Z,99567.16
2022-11-04T01:38:56.364Z,99572.56
2022-11-04T01:45:58.453Z,99563.94
2022-11-04T02:40:04.856Z,99523.66
2022-11-04T03:15:29.548Z,99507.97
2022-11-04T03:27:08.356Z,99492.38
2022-11-04T03:34:05.950Z,99521.41
2022-11-04T03:41:00.047Z,99518.16
2022-11-04T03:44:08.962Z,99527.59
2022-11-04T04:12:03.934Z,99532.06
2022-11-04T04:15:37.130Z,99524.25
2022-11-04T04:26:39.107Z,99526.38
2022-11-04T04:36:13.381Z,99529.91
2022-11-04T04:38:59.950Z,99532.31
2022-11-04T04:41:48.014Z,99527.72
2022-11-04T04:44:44.962Z,99532.19
2022-11-04T04:47:22.267Z,99536.66
2022-11-04T04:49:57.139Z,99535.59
2022-11-04T04:52:26.339Z,99526.78
2022-11-04T04:54:53.008Z,99530.16
2022-11-04T04:57:19.840Z,99522.09
2022-11-04T04:59:46.655Z,99521.34
2022-11-04T05:02:13.572Z,99521.47
2022-11-04T05:04:44.085Z,99517.88
2022-11-04T05:07:18.326Z,99518.22
2022-11-04T05:09:48.180Z,99519.91
2022-11-04T05:12:21.739Z,99512.81
2022-11-04T05:14:51.540Z,99520.41
2022-11-04T05:17:34.377Z,99513.19
2022-11-04T05:20:07.281Z,99521.03
2022-11-04T05:22:41.705Z,99531.88
2022-11-04T05:25:08.874Z,99533.53
2022-11-04T05:27:35.665Z,99547.66
2022-11-04T05:30:02.384Z,99541.59
2022-11-04T05:32:33.344Z,99533.53
2022-11-04T05:35:00.178Z,99535.34
2022-11-04T05:37:27.046Z,99533.53
2022-11-04T05:39:53.728Z,99535.34
2022-11-04T05:42:20.598Z,99537.75
2022-11-04T05:44:53.253Z,99536.09
2022-11-04T05:47:31.800Z,99551.75
2022-11-04T05:49:58.606Z,99566.59
2022-11-04T05:52:25.231Z,99565.72
2022-11-04T05:54:51.912Z,99569.25
2022-11-04T05:57:18.544Z,99571.78
2022-11-04T05:59:45.480Z,99563.31
2022-11-04T06:02:12.162Z,99565.97
2022-11-04T06:04:44.696Z,99560.03
2022-11-04T06:07:12.126Z,99560.91
2022-11-04T06:09:41.867Z,99565.25
2022-11-04T06:12:17.145Z,99570.78
2022-11-04T06:14:44.614Z,99578.00
2022-11-04T06:17:17.764Z,99571.72
2022-11-04T06:19:44.515Z,99588.25
2022-11-04T06:22:12.344Z,99592.72
2022-11-04T06:24:39.165Z,99590.91
2022-11-04T06:27:05.820Z,99586.91
2022-11-04T06:29:32.932Z,99594.75
2022-11-04T06:31:59.709Z,99598.84
2022-11-04T06:34:26.493Z,99604.97
2022-11-04T06:37:00.465Z,99613.03
2022-11-04T06:39:27.219Z,99609.53
2022-11-04T06:41:55.495Z,99616.41
2022-11-04T06:44:24.634Z,99626.19
2022-11-04T06:46:51.295Z,99630.28
2022-11-04T06:49:20.596Z,99623.28
2022-11-04T06:51:48.563Z,99624.03
2022-11-04T06:54:17.950Z,99624.03
2022-11-04T06:56:45.068Z,99642.34
2022-11-04T06:59:19.931Z,99634.41
2022-11-04T07:01:47.325Z,99631.75
2022-11-04T07:04:14.158Z,99632.94
2022-11-04T07:06:44.722Z,99646.19
2022-11-04T07:09:15.734Z,99646.19
2022-11-04T07:11:43.835Z,99636.22
2022-11-04T07:14:10.752Z,99638.00
2022-11-04T07:16:37.402Z,99634.28
2022-11-04T07:19:04.280Z,99642.97
2022-11-04T07:21:31.365Z,99644.56
2022-11-04T07:23:58.097Z,99645.50
2022-11-04T07:26:24.806Z,99646.03
2022-11-04T07:28:51.553Z,99642.41
2022-11-04T07:31:18.657Z,99652.53
2022-11-04T07:33:50.150Z,99647.03
2022-11-04T07:36:17.878Z,99650.63
2022-11-04T07:38:55.820Z,99647.03
2022-11-04T07:45:16.586Z,99631.31
2022-11-04T07:47:51.342Z,99634.47
2022-11-04T07:50:18.233Z,99622.59
2022-11-04T07:52:57.167Z,99632.97
2022-11-04T07:56:26.361Z,99630.19
2022-11-04T07:58:56.024Z,99636.97
2022-11-04T08:05:41.073Z,99619.72
2022-11-04T08:08:21.844Z,99628.59
2022-11-04T08:11:02.723Z,99620.13
2022-11-04T08:17:22.561Z,99604.50
2022-11-04T08:19:49.600Z,99602.72
2022-11-04T08:22:16.417Z,99607.66
2022-11-04T08:24:43.344Z,99609.59
2022-11-04T08:27:10.323Z,99612.75
2022-11-04T08:29:39.560Z,99611.88
2022-11-04T08:32:14.294Z,99606.94
2022-11-04T08:34:42.159Z,99608.53
2022-11-04T08:37:09.126Z,99620.72
2022-11-04T08:39:35.787Z,99631.91
2022-11-04T08:42:02.425Z,99635.44
2022-11-04T08:44:29.100Z,99631.56
2022-11-04T08:46:55.789Z,99638.69
2022-11-04T08:49:33.941Z,99628.53
2022-11-04T08:52:04.058Z,99630.25
2022-11-04T08:54:30.897Z,99618.56
2022-11-04T08:56:57.628Z,99626.88
2022-11-04T08:59:25.278Z,99632.81
2022-11-04T09:01:51.991Z,99634.75
2022-11-04T09:04:24.558Z,99644.28
2022-11-04T09:11:44.466Z,99672.28
2022-11-04T09:14:20.697Z,99657.94
2022-11-04T09:17:25.976Z,99660.09
2022-11-04T09:20:25.423Z,99643.81
2022-11-04T09:23:04.406Z,99636.81
2022-11-04T09:28:12.131Z,99651.53
2022-11-04T09:31:18.416Z,99618.81
2022-11-04T09:33:58.074Z,99617.09
2022-11-04T09:36:25.280Z,99611.91
2022-11-04T09:43:12.710Z,99605.59
2022-11-04T09:46:33.544Z,99610.28
2022-11-04T09:49:32.419Z,99597.47
2022-11-04T09:59:22.096Z,99588.94
2022-11-04T10:02:59.251Z,99601.28
2022-11-04T10:06:19.766Z,99608.03
2022-11-04T10:09:14.033Z,99617.56
2022-11-04T10:12:01.719Z,99639.03
2022-11-04T10:14:52.870Z,99650.84
2022-11-04T10:17:26.851Z,99665.97
2022-11-04T10:20:45.448Z,99675.91
2022-11-04T10:23:27.245Z,99688.59
2022-11-04T10:26:12.506Z,99685.59
2022-11-04T10:28:44.935Z,99682.56
2022-11-04T10:31:16.261Z,99686.69
2022-11-04T10:33:47.585Z,99677.16
2022-11-04T10:36:20.502Z,99685.84
2022-11-04T10:38:50.796Z,99685.25
2022-11-04T10:41:20.430Z,99688.25
2022-11-04T10:43:47.978Z,99682.81
2022-11-04T10:46:21.090Z,99696.19
2022-11-04T10:48:55.552Z,99697.91
2022-11-04T10:51:23.932Z,99689.22
2022-11-04T10:53:55.450Z,99679.41
2022-11-04T10:56:33.758Z,99699.72
2022-11-04T10:59:10.216Z,99694.28
2022-11-04T11:01:37.017Z,99697.28
2022-11-04T11:04:06.965Z,99701.38
2022-11-04T11:06:35.287Z,99703.09
2022-11-04T11:09:30.742Z,99703.69
2022-11-04T11:12:29.526Z,99708.69
2022-11-04T11:14:53.702Z,99702.25
2022-11-04T11:17:23.753Z,99703.00
2022-11-04T11:20:25.052Z,99714.00
2022-11-04T11:22:52.229Z,99714.72
2022-11-04T11:25:30.509Z,99714.72
2022-11-04T11:28:09.194Z,99713.03
2022-11-04T11:30:53.091Z,99716.56
2022-11-04T11:33:26.996Z,99724.28
2022-11-04T11:36:20.071Z,99716.66
2022-11-04T11:38:56.238Z,99715.69
2022-11-04T11:41:28.945Z,99718.34
2022-11-04T11:43:56.162Z,99726.31
2022-11-04T11:46:24.614Z,99736.00
2022-11-04T11:48:53.521Z,99734.78
2022-11-04T11:51:44.595Z,99736.00
2022-11-04T11:54:33.610Z,99737.09
2022-11-04T11:57:13.925Z,99737.84
2022-11-04T12:02:47.204Z,99737.97
2022-11-04T12:11:25.805Z,99747.50
2022-11-04T12:13:56.595Z,99749.81
2022-11-04T12:16:34.156Z,99751.38
2022-11-04T12:19:45.400Z,99751.13
2022-11-04T12:22:18.280Z,99751.50
2022-11-04T12:24:57.692Z,99749.81
2022-11-04T12:27:50.823Z,99752.13
2022-11-04T12:30:25.943Z,99749.22
2022-11-04T12:37:35.746Z,99741.59
2022-11-04T12:44:16.138Z,99745.94
2022-11-04T12:46:54.147Z,99747.88
2022-11-04T12:49:34.223Z,99754.66
2022-11-04T12:52:19.492Z,99759.72
2022-11-04T12:55:20.612Z,99746.28
2022-11-04T13:00:24.932Z,99751.97
2022-11-04T13:02:56.896Z,99758.97
2022-11-04T13:05:34.135Z,99759.09
2022-11-04T13:08:04.120Z,99759.84
2022-11-04T13:10:58.596Z,99747.63
2022-11-04T13:13:33.464Z,99749.44
2022-11-04T13:16:03.550Z,99747.63
2022-11-04T13:18:33.053Z,99741.31
2022-11-04T13:21:04.615Z,99744.25
2022-11-04T13:23:38.517Z,99752.34
2022-11-04T13:26:06.947Z,99751.59
2022-11-04T13:28:33.676Z,99753.69
2022-11-04T13:31:03.324Z,99764.66
2022-11-04T13:33:36.033Z,99773.47
2022-11-04T13:36:22.333Z,99775.06
2022-11-04T13:38:55.892Z,99774.13
2022-11-04T13:41:47.143Z,99770.59
2022-11-04T13:44:19.114Z,99778.81
2022-11-04T13:46:52.661Z,99774.72
2022-11-04T13:49:30.279Z,99775.66
2022-11-04T13:52:07.654Z,99776.88
2022-11-04T13:54:53.894Z,99768.41
2022-11-04T13:57:26.099Z,99766.13
2022-11-04T14:00:11.291Z,99766.25
2022-11-04T14:02:44.748Z,99765.50
2022-11-04T14:05:36.224Z,99767.69
2022-11-04T14:08:02.862Z,99765.88
2022-11-04T14:10:48.421Z,99774.09
2022-11-04T14:13:27.356Z,99769.00
2022-11-04T14:16:19.025Z,99773.38
2022-11-04T14:18:50.168Z,99773.13
2022-11-04T14:21:25.458Z,99772.16
2022-11-04T14:23:54.468Z,99780.00
2022-11-04T14:26:24.036Z,99784.47
2022-11-04T14:29:20.221Z,99788.22
2022-11-04T14:31:50.762Z,99793.41
2022-11-04T14:34:26.381Z,99797.03
2022-11-04T14:36:57.904Z,99789.78
2022-11-04T14:39:28.133Z,99791.25
2022-11-04T14:42:06.937Z,99791.25
2022-11-04T14:44:49.742Z,99798.25
2022-11-04T14:50:19.421Z,99797.31
2022-11-04T14:52:53.124Z,99801.63
2022-11-04T14:56:23.585Z,99807.69
2022-11-04T14:59:23.068Z,99795.13
2022-11-04T15:01:54.577Z,99795.81
2022-11-04T15:04:28.765Z,99803.56
2022-11-04T15:07:08.068Z,99798.38
2022-11-04T15:09:40.890Z,99789.66
2022-11-04T15:12:32.683Z,99795.94
2022-11-04T15:15:00.106Z,99800.91
2022-11-04T15:17:31.756Z,99803.66
2022-11-04T15:20:00.486Z,99806.44
2022-11-04T15:22:28.133Z,99808.16
2022-11-04T15:24:55.051Z,99807.28
2022-11-04T15:27:28.607Z,99812.22
2022-11-04T15:29:58.075Z,99827.22
2022-11-04T15:32:26.173Z,99819.69
2022-11-04T15:34:54.029Z,99831.41
2022-11-04T15:37:22.076Z,99835.25
2022-11-04T15:39:51.400Z,99830.81
2022-11-04T15:42:45.584Z,99828.28
2022-11-04T15:45:38.070Z,99827.28
2022-11-04T15:48:26.741Z,99835.34
2022-11-04T15:51:02.522Z,99837.28
2022-11-04T15:53:29.145Z,99828.81
2022-11-04T15:55:55.932Z,99830.00
2022-11-04T15:58:22.651Z,99834.56
2022-11-04T16:00:54.318Z,99843.38
2022-11-04T16:03:22.753Z,99847.34
2022-11-04T16:06:04.856Z,99846.59
2022-11-04T16:08:32.329Z,99846.97
2022-11-04T16:11:19.398Z,99841.31
2022-11-04T16:13:46.644Z,99846.03
2022-11-04T16:16:26.735Z,99850.84
2022-11-04T16:18:57.861Z,99854.72
2022-11-04T16:21:33.787Z,99858.13
2022-11-04T16:24:03.137Z,99867.03
2022-11-04T16:26:38.411Z,99868.97
2022-11-04T16:29:10.648Z,99882.78
2022-11-04T16:31:37.477Z,99874.38
2022-11-04T16:34:11.919Z,99867.72
2022-11-04T16:36:38.862Z,99866.31
2022-11-04T16:39:08.899Z,99870.44
2022-11-04T16:41:37.457Z,99873.09
2022-11-04T16:44:05.441Z,99876.19
2022-11-04T16:46:33.016Z,99879.09
2022-11-04T16:48:59.870Z,99881.25
2022-11-04T16:51:26.597Z,99887.06
2022-11-04T16:53:54.747Z,99883.94
2022-11-04T16:56:24.721Z,99891.06
2022-11-04T16:58:52.412Z,99891.81
2022-11-04T17:01:19.451Z,99894.56
2022-11-04T17:03:46.455Z,99893.84
2022-11-04T17:06:14.750Z,99903.13
2022-11-04T17:08:42.168Z,99906.34
2022-11-04T17:11:09.954Z,99907.44
2022-11-04T17:13:37.355Z,99905.25
2022-11-04T17:16:06.242Z,99911.16
2022-11-04T17:18:35.385Z,99906.19
2022-11-04T17:21:06.240Z,99914.88
2022-11-04T17:23:33.038Z,99915.97
2022-11-04T17:25:59.716Z,99907.91
2022-11-04T17:28:27.101Z,99920.31
2022-11-04T17:30:53.837Z,99918.00
2022-11-04T17:33:20.773Z,99927.09
2022-11-04T17:35:49.663Z,99923.03
2022-11-04T17:38:17.634Z,99922.09
2022-11-04T17:41:03.523Z,99925.56
2022-11-04T17:43:48.984Z,99927.84
2022-11-04T17:46:34.369Z,99931.25
2022-11-04T17:49:11.021Z,99925.69
2022-11-04T17:51:39.607Z,99931.84
2022-11-04T17:54:06.940Z,99933.66
2022-11-04T17:56:33.672Z,99939.81
2022-11-04T17:59:01.464Z,99937.78
2022-11-04T18:01:28.440Z,99944.91
2022-11-04T18:03:55.289Z,99943.09
2022-11-04T18:06:22.360Z,99944.78
2022-11-04T18:08:49.248Z,99944.91
2022-11-04T18:11:36.261Z,99942.84
2022-11-04T18:14:02.975Z,99941.38
2022-11-04T18:16:29.868Z,99943.31
2022-11-04T18:19:00.246Z,99942.97
2022-11-04T18:21:27.722Z,99950.94
2022-11-04T18:23:57.928Z,99949.97
2022-11-04T18:26:25.317Z,99950.53
2022-11-04T18:28:52.488Z,99952.88
2022-11-04T18:31:25.813Z,99945.75
2022-11-04T18:33:52.691Z,99953.06
2022-11-04T18:36:19.955Z,99949.69
2022-11-04T18:38:47.420Z,99961.38
2022-11-04T18:41:14.470Z,99956.28
2022-11-04T18:43:41.189Z,99959.44
2022-11-04T18:46:13.279Z,99960.53
2022-11-04T18:48:40.502Z,99962.75
2022-11-04T18:51:09.669Z,99966.19
2022-11-04T18:53:36.680Z,99963.97
2022-11-04T18:56:11.384Z,99958.88
2022-11-04T18:58:39.246Z,99967.56
2022-11-04T19:01:23.960Z,99974.38
2022-11-04T19:03:50.957Z,99970.84
2022-11-04T19:06:20.385Z,99975.31
2022-11-04T19:08:47.566Z,99962.91
2022-11-04T19:11:17.723Z,99972.03
2022-11-04T19:13:45.041Z,99975.75
2022-11-04T19:16:12.883Z,99972.59
2022-11-04T19:18:40.358Z,99976.94
2022-11-04T19:21:12.276Z,99980.78
2022-11-04T19:23:39.335Z,99988.72
2022-11-04T19:26:08.118Z,99984.16
2022-11-04T19:28:47.630Z,99988.63
2022-11-04T19:31:18.281Z,99992.22
2022-11-04T19:33:45.354Z,99992.03
2022-11-04T19:36:13.350Z,100001.56
2022-11-04T19:38:40.135Z,99999.66
2022-11-04T19:41:43.733Z,99989.25
2022-11-04T19:44:13.383Z,99997.34
2022-11-04T19:46:40.344Z,99989.38
2022-11-04T19:49:07.581Z,99992.97
2022-11-04T19:51:35.348Z,99988.50
2022-11-04T19:54:02.294Z,99989.25
2022-11-04T19:56:29.156Z,99998.81
2022-11-04T19:58:55.757Z,99986.81
2022-11-04T20:01:22.478Z,99989.25
2022-11-04T20:03:49.217Z,99994.56
2022-11-04T20:06:16.461Z,99989.38
2022-11-04T20:08:44.899Z,99991.91
2022-11-04T20:11:12.946Z,99995.41
2022-11-04T20:13:49.049Z,100000.94
2022-11-04T20:16:19.834Z,99996.47
2022-11-04T20:18:47.487Z,100003.28
2022-11-04T20:21:20.885Z,100003.19
2022-11-04T20:24:42.848Z,100009.97
2022-11-04T20:27:15.040Z,100005.06
2022-11-04T20:29:54.334Z,100007.31
2022-11-04T20:33:06.089Z,99998.47
2022-11-04T20:47:11.865Z,100016.97
2022-11-04T20:57:28.630Z,100024.94
2022-11-04T20:59:55.452Z,100024.81
2022-11-04T21:02:24.766Z,100028.13
2022-11-04T21:09:13.411Z,100035.44
2022-11-04T21:11:40.606Z,100038.75
2022-11-04T21:14:16.197Z,100039.03
2022-11-04T21:16:43.859Z,100050.00
2022-11-04T21:19:23.700Z,100049.13
2022-11-04T21:21:50.437Z,100052.00
2022-11-04T21:24:17.205Z,100061.09
2022-11-04T21:26:44.528Z,100056.53
2022-11-04T21:29:13.916Z,100052.06
2022-11-04T21:31:41.222Z,100051.44
2022-11-04T21:34:07.855Z,100054.19
2022-11-04T21:36:34.535Z,100055.03
2022-11-04T21:39:01.417Z,100055.03
2022-11-04T21:41:30.313Z,100058.06
2022-11-04T21:43:58.165Z,100065.03
2022-11-04T21:46:25.598Z,100063.16
2022-11-04T21:48:52.227Z,100061.13
2022-11-04T21:51:22.173Z,100060.91
2022-11-04T21:53:48.962Z,100069.94
2022-11-04T21:56:21.344Z,100063.56
2022-11-04T21:58:47.977Z,100062.94
2022-11-04T22:01:19.802Z,100061.97
2022-11-04T22:03:53.961Z,100068.03
2022-11-04T22:06:21.223Z,100067.41
2022-11-04T22:08:53.787Z,100059.22
2022-11-04T22:11:23.719Z,100075.25
2022-11-04T22:13:58.093Z,100076.19
2022-11-04T22:16:27.953Z,100074.59
2022-11-04T22:18:56.253Z,100086.28
2022-11-04T22:21:24.992Z,100079.19
2022-11-04T22:23:51.789Z,100083.72
2022-11-04T22:26:26.703Z,100075.78
2022-11-04T22:28:54.697Z,100076.63
2022-11-04T22:31:28.567Z,100074.81
2022-11-04T22:33:55.789Z,100076.63
2022-11-04T22:36:23.491Z,100080.97
2022-11-04T22:38:50.471Z,100087.25
2022-11-04T22:41:21.526Z,100093.09
2022-11-04T22:43:48.210Z,100088.63
2022-11-04T22:46:19.347Z,100090.94
2022-11-04T22:48:46.101Z,100095.94
2022-11-04T22:51:12.922Z,100093.94
2022-11-04T22:53:40.158Z,100087.16
2022-11-04T22:56:08.536Z,100095.00
2022-11-04T22:58:35.353Z,100089.03
2022-11-04T23:01:05.309Z,100092.66
2022-11-04T23:03:32.114Z,100103.47
2022-11-04T23:06:00.702Z,100095.41
2022-11-04T23:08:28.665Z,100094.56
2022-11-04T23:11:16.481Z,100098.28
2022-11-04T23:14:07.910Z,100106.00
2022-11-04T23:16:53.370Z,100115.09
2022-11-04T23:19:20.157Z,100102.78
2022-11-04T23:22:05.552Z,100105.56
2022-11-04T23:24:50.853Z,100108.63
2022-11-04T23:27:36.250Z,100107.34
2022-11-04T23:30:21.250Z,100112.97
2022-11-04T23:32:58.003Z,100126.97
2022-11-04T23:35:46.021Z,100124.84
2022-11-04T23:38:12.715Z,100126.13
2022-11-04T23:40:39.450Z,100121.88
2022-11-04T23:43:06.386Z,100124.41
2022-11-04T23:45:52.009Z,100119.44
2022-11-04T23:48:37.453Z,100119.44
2022-11-04T23:51:22.780Z,100118.06
2022-11-04T23:54:08.346Z,100120.72
2022-11-04T23:56:53.612Z,100123.34
2022-11-04T23:59:38.807Z,100122.72
